Time;durP1;ratioP1;P1;durP2;ratioP2;P2;SDS_P1;SDS_P2;PMS_P1;PMS_P2;Temp;Humidity;BMP_temperature;BMP_pressure;BME280_temperature;BME280_humidity;BME280_pressure;Samples;Min_cycle;Max_cycle;Signal;HPM_P1;HPM_P2
2022/01/05 00:00:21;;;;;;;17.03;2.37;;;5.30;99.90;;;;;;5103864;27;40209;-73
2022/01/05 00:02:47;;;;;;;10.83;2.00;;;5.20;99.90;;;;;;5100310;27;36737;-72
2022/01/05 00:05:13;;;;;;;13.73;2.00;;;5.20;99.90;;;;;;5099063;27;38405;-73
2022/01/05 00:07:40;;;;;;;15.53;2.60;;;5.20;99.90;;;;;;5081812;27;36633;-73
2022/01/05 00:10:06;;;;;;;7.77;1.90;;;5.20;99.90;;;;;;5087917;28;38893;-73
2022/01/05 00:12:32;;;;;;;10.80;2.07;;;5.30;99.90;;;;;;5097228;27;39054;-73
2022/01/05 00:14:58;;;;;;;12.80;3.70;;;5.30;99.90;;;;;;5079882;27;38887;-73
2022/01/05 00:17:25;;;;;;;11.03;1.83;;;5.40;99.90;;;;;;5103884;27;37267;-72
2022/01/05 00:19:51;;;;;;;11.17;2.07;;;5.40;99.90;;;;;;5119860;27;39032;-72
2022/01/05 00:22:17;;;;;;;10.67;2.43;;;5.40;99.90;;;;;;5104004;27;38407;-72
2022/01/05 00:24:43;;;;;;;15.43;2.67;;;5.40;99.90;;;;;;5106611;27;38204;-72
2022/01/05 00:27:09;;;;;;;10.83;3.17;;;5.30;99.90;;;;;;5088871;27;39050;-72
2022/01/05 00:29:35;;;;;;;11.80;2.33;;;5.20;99.90;;;;;;5109276;27;38779;-72
2022/01/05 00:32:02;;;;;;;15.37;2.40;;;5.20;99.90;;;;;;5091104;28;40488;-72
2022/01/05 00:34:28;;;;;;;14.20;2.30;;;5.20;99.90;;;;;;5088631;27;39170;-72
2022/01/05 00:36:54;;;;;;;9.67;2.10;;;5.30;99.90;;;;;;5091641;27;37510;-73
2022/01/05 00:39:20;;;;;;;18.77;2.07;;;5.30;99.90;;;;;;5104340;27;38115;-73
2022/01/05 00:41:46;;;;;;;11.33;2.07;;;5.30;99.90;;;;;;5093179;27;39472;-72
2022/01/05 00:44:12;;;;;;;11.93;2.27;;;5.40;99.90;;;;;;5090290;27;38686;-73
2022/01/05 00:46:39;;;;;;;8.57;1.83;;;5.30;99.90;;;;;;5084254;28;38938;-73
2022/01/05 00:49:05;;;;;;;13.93;2.23;;;5.20;99.90;;;;;;5105833;27;38697;-74
2022/01/05 00:51:31;;;;;;;16.90;2.73;;;5.00;99.90;;;;;;5116794;27;38488;-72
2022/01/05 00:53:57;;;;;;;9.70;1.70;;;5.00;99.90;;;;;;5121055;27;38612;-73
2022/01/05 00:56:23;;;;;;;11.77;2.10;;;4.90;99.90;;;;;;5091729;27;37774;-72
2022/01/05 00:58:49;;;;;;;14.63;2.50;;;4.80;99.90;;;;;;5087625;27;39838;-72
2022/01/05 01:01:15;;;;;;;12.87;2.37;;;4.70;99.90;;;;;;5094611;28;39266;-72
2022/01/05 01:03:41;;;;;;;17.33;2.80;;;4.70;99.90;;;;;;5094596;27;39672;-72
2022/01/05 01:06:07;;;;;;;12.63;2.23;;;4.60;99.90;;;;;;5088877;28;38166;-73
2022/01/05 01:08:34;;;;;;;10.73;2.00;;;4.50;99.90;;;;;;5110830;27;39084;-73
2022/01/05 01:11:00;;;;;;;13.37;2.10;;;4.50;99.90;;;;;;5089397;27;39650;-73
2022/01/05 01:13:26;;;;;;;15.07;2.50;;;4.50;99.90;;;;;;5087520;27;40281;-72
2022/01/05 01:15:52;;;;;;;10.23;2.53;;;4.40;99.90;;;;;;5083029;27;37301;-71
2022/01/05 01:18:19;;;;;;;9.83;1.93;;;4.40;99.90;;;;;;5099951;27;38786;-72
2022/01/05 01:20:49;;;;;;;13.77;1.83;;;4.40;99.90;;;;;;5099021;27;39267;-72
2022/01/05 01:23:22;;;;;;;13.53;2.67;;;4.40;99.90;;;;;;5100007;27;40736;-73
2022/01/05 01:25:49;;;;;;;;;;;4.40;99.90;;;;;;5096934;27;38027;-73
2022/01/05 01:28:15;;;;;;;12.67;1.87;;;4.30;99.90;;;;;;5104515;27;39260;-73
2022/01/05 01:30:41;;;;;;;11.90;2.13;;;4.30;99.90;;;;;;5104893;27;39404;-72
2022/01/05 01:33:07;;;;;;;13.37;2.93;;;4.30;99.90;;;;;;5088115;28;37100;-74
2022/01/05 01:35:33;;;;;;;17.80;2.30;;;4.30;99.90;;;;;;5106261;27;37148;-73
2022/01/05 01:38:00;;;;;;;15.27;2.50;;;4.20;99.90;;;;;;5084981;27;39059;-72
2022/01/05 01:40:27;;;;;;;14.53;2.30;;;4.20;99.90;;;;;;5104861;27;37490;-73
2022/01/05 01:42:53;;;;;;;17.03;2.73;;;4.40;99.90;;;;;;5080688;27;38038;-73
2022/01/05 01:45:20;;;;;;;10.40;2.33;;;4.50;99.90;;;;;;5088473;27;36273;-72
2022/01/05 01:47:46;;;;;;;11.80;3.23;;;4.50;99.90;;;;;;5091362;28;38188;-73
2022/01/05 01:50:13;;;;;;;19.33;3.10;;;4.40;99.90;;;;;;5108699;27;38384;-72
2022/01/05 01:52:39;;;;;;;17.27;2.50;;;4.30;99.90;;;;;;5088617;28;38005;-73
2022/01/05 01:55:06;;;;;;;17.57;2.47;;;4.30;99.90;;;;;;5088346;27;36682;-73
2022/01/05 01:57:35;;;;;;;17.47;2.40;;;4.40;99.90;;;;;;5119836;27;38151;-72
2022/01/05 02:00:05;;;;;;;17.97;2.70;;;4.40;99.90;;;;;;5086393;27;37376;-72
2022/01/05 02:02:31;;;;;;;17.17;2.30;;;4.40;99.90;;;;;;5093643;27;47320;-73
2022/01/05 02:04:57;;;;;;;17.80;2.77;;;4.50;99.90;;;;;;5096049;27;36972;-73
2022/01/05 02:07:23;;;;;;;14.90;2.60;;;4.50;99.90;;;;;;5109451;27;38017;-75
2022/01/05 02:09:50;;;;;;;9.03;2.07;;;4.50;99.90;;;;;;5091691;27;37344;-74
2022/01/05 02:12:16;;;;;;;14.57;2.40;;;4.50;99.90;;;;;;5113597;27;39004;-73
2022/01/05 02:14:42;;;;;;;18.47;2.73;;;4.40;99.90;;;;;;5092826;27;35761;-73
2022/01/05 02:17:18;;;;;;;15.90;2.60;;;4.40;99.90;;;;;;5109196;27;38924;-73
2022/01/05 02:19:44;;;;;;;12.77;2.43;;;4.50;99.90;;;;;;5097653;27;39359;-74
2022/01/05 02:22:10;;;;;;;18.97;3.03;;;4.60;99.90;;;;;;5089238;27;37270;-73
2022/01/05 02:24:36;;;;;;;19.30;3.37;;;4.80;99.90;;;;;;5085562;27;38518;-73
2022/01/05 02:27:03;;;;;;;16.37;2.73;;;4.90;99.90;;;;;;5090255;27;37906;-73
2022/01/05 02:29:29;;;;;;;13.97;2.67;;;5.00;99.90;;;;;;5088005;27;37060;-73
2022/01/05 02:31:57;;;;;;;15.67;2.60;;;5.10;99.90;;;;;;5085507;27;39115;-73
2022/01/05 02:34:23;;;;;;;13.70;2.67;;;5.10;99.90;;;;;;5106770;27;37225;-73
2022/01/05 02:36:49;;;;;;;12.03;2.43;;;5.10;99.90;;;;;;5086516;27;37804;-73
2022/01/05 02:39:15;;;;;;;16.00;4.63;;;5.10;99.90;;;;;;5101206;27;38367;-73
2022/01/05 02:41:41;;;;;;;17.43;2.70;;;5.00;99.90;;;;;;5091415;27;38497;-73
2022/01/05 02:44:07;;;;;;;16.27;2.60;;;5.00;99.90;;;;;;5088066;28;36411;-73
2022/01/05 02:46:34;;;;;;;18.20;2.53;;;5.00;99.90;;;;;;5110960;27;38877;-73
2022/01/05 02:49:02;;;;;;;15.83;2.40;;;5.00;99.90;;;;;;5084432;27;38731;-73
2022/01/05 02:51:28;;;;;;;17.27;3.40;;;5.00;99.90;;;;;;5080522;27;47430;-71
2022/01/05 02:53:54;;;;;;;25.00;3.23;;;5.10;99.90;;;;;;5102644;27;37100;-74
2022/01/05 02:56:21;;;;;;;10.30;2.50;;;5.20;99.90;;;;;;5074528;28;38189;-74
2022/01/05 02:58:47;;;;;;;20.60;2.73;;;5.20;99.90;;;;;;5104565;27;38210;-73
2022/01/05 03:01:13;;;;;;;17.37;3.00;;;5.30;99.90;;;;;;5083338;28;39180;-73
2022/01/05 03:03:39;;;;;;;14.20;3.27;;;5.30;99.90;;;;;;5102834;27;37368;-72
2022/01/05 03:06:05;;;;;;;19.33;3.40;;;5.30;99.90;;;;;;5089184;27;39224;-73
2022/01/05 03:08:32;;;;;;;19.10;2.90;;;5.30;99.90;;;;;;5087085;28;37459;-72
2022/01/05 03:10:59;;;;;;;21.13;3.47;;;5.20;99.90;;;;;;5096583;27;37868;-73
2022/01/05 03:13:25;;;;;;;19.93;3.27;;;5.20;99.90;;;;;;5105827;27;37154;-72
2022/01/05 03:15:52;;;;;;;18.60;3.07;;;5.30;99.90;;;;;;5097328;27;39904;-72
2022/01/05 03:18:19;;;;;;;18.87;3.37;;;5.30;99.90;;;;;;5089260;27;37520;-73
2022/01/05 03:20:48;;;;;;;20.67;3.57;;;5.30;99.90;;;;;;5091859;27;37144;-72
2022/01/05 03:23:15;;;;;;;15.33;3.00;;;5.20;99.90;;;;;;5090154;27;37419;-73
2022/01/05 03:25:42;;;;;;;17.03;2.90;;;5.30;99.90;;;;;;5091766;27;37804;-73
2022/01/05 03:28:09;;;;;;;26.57;3.70;;;5.30;99.90;;;;;;5108142;27;39179;-72
2022/01/05 03:30:35;;;;;;;16.23;2.70;;;5.30;99.90;;;;;;5105251;27;38128;-73
2022/01/05 03:35:36;;;;;;;13.65;2.55;;;5.30;99.90;;;;;;5103744;27;50583;-72
2022/01/05 03:38:03;;;;;;;17.17;2.97;;;5.40;99.90;;;;;;5093504;27;39005;-73
2022/01/05 03:40:30;;;;;;;21.17;3.17;;;5.50;99.90;;;;;;5093738;27;39137;-72
2022/01/05 03:42:57;;;;;;;23.30;3.47;;;5.50;99.90;;;;;;5094841;27;38859;-72
2022/01/05 03:45:23;;;;;;;18.33;2.97;;;5.50;99.90;;;;;;5111544;27;38654;-72
2022/01/05 03:47:49;;;;;;;13.70;3.20;;;5.50;99.90;;;;;;5091922;27;39746;-72
2022/01/05 03:50:15;;;;;;;15.97;3.20;;;5.60;99.90;;;;;;5105598;27;38178;-72
2022/01/05 03:52:41;;;;;;;18.63;3.23;;;5.60;99.90;;;;;;5097933;27;36964;-74
2022/01/05 03:55:08;;;;;;;18.57;3.50;;;5.60;99.90;;;;;;5082825;27;39571;-72
2022/01/05 03:57:34;;;;;;;24.17;3.43;;;5.50;99.90;;;;;;5088481;27;39190;-73
2022/01/05 04:00:01;;;;;;;16.70;3.73;;;5.50;99.90;;;;;;5089470;27;38505;-72
2022/01/05 04:02:27;;;;;;;22.63;3.23;;;5.50;99.90;;;;;;5083077;28;46318;-73
2022/01/05 04:04:53;;;;;;;19.93;3.57;;;5.50;99.90;;;;;;5091922;27;40543;-73
2022/01/05 04:07:19;;;;;;;19.90;3.27;;;5.50;99.90;;;;;;5056270;28;39067;-73
2022/01/05 04:09:45;;;;;;;20.77;3.77;;;5.60;99.90;;;;;;5054514;28;38825;-72
2022/01/05 04:12:11;;;;;;;18.87;3.40;;;5.60;99.90;;;;;;5079119;28;37214;-72
2022/01/05 04:14:37;;;;;;;19.13;3.40;;;5.60;99.90;;;;;;5086218;28;38116;-72
2022/01/05 04:17:04;;;;;;;18.17;3.13;;;5.60;99.90;;;;;;5065883;28;39159;-72
2022/01/05 04:19:31;;;;;;;16.93;3.80;;;5.60;99.90;;;;;;5077717;27;37470;-73
2022/01/05 04:21:57;;;;;;;19.07;2.83;;;5.60;99.90;;;;;;5095350;27;37951;-73
2022/01/05 04:24:23;;;;;;;22.80;2.67;;;5.70;99.90;;;;;;5114497;27;38742;-73
2022/01/05 04:26:50;;;;;;;19.33;3.40;;;5.70;99.90;;;;;;5103946;27;38444;-72
2022/01/05 04:29:16;;;;;;;17.37;3.27;;;5.70;99.90;;;;;;5102257;27;37959;-72
2022/01/05 04:31:42;;;;;;;17.43;2.87;;;5.70;99.90;;;;;;5095969;27;37897;-72
2022/01/05 04:34:08;;;;;;;23.73;3.47;;;5.80;99.90;;;;;;5107381;28;38662;-73
2022/01/05 04:36:34;;;;;;;18.43;2.93;;;5.80;99.90;;;;;;5087259;27;38551;-73
2022/01/05 04:39:00;;;;;;;20.20;3.87;;;5.80;99.90;;;;;;5103956;27;37898;-72
2022/01/05 04:41:26;;;;;;;17.43;2.43;;;5.80;99.90;;;;;;5085867;27;47445;-72
2022/01/05 04:43:53;;;;;;;16.10;3.23;;;5.80;99.90;;;;;;5084782;28;37666;-73
2022/01/05 04:46:19;;;;;;;13.70;3.23;;;5.90;99.90;;;;;;5083506;28;38780;-72
2022/01/05 04:48:45;;;;;;;16.93;3.07;;;5.90;99.90;;;;;;5101650;27;38368;-71
2022/01/05 04:51:11;;;;;;;11.40;2.43;;;5.90;99.90;;;;;;5084572;28;38740;-72
2022/01/05 04:53:37;;;;;;;25.80;4.10;;;5.90;99.90;;;;;;5084013;27;39967;-72
2022/01/05 04:56:03;;;;;;;15.50;3.50;;;5.90;99.90;;;;;;5101935;27;38275;-72
2022/01/05 04:58:31;;;;;;;20.93;4.00;;;5.90;99.90;;;;;;5103069;27;39547;-72
2022/01/05 05:00:57;;;;;;;13.83;2.83;;;5.90;99.90;;;;;;5102831;27;35716;-72
2022/01/05 05:03:23;;;;;;;20.20;3.30;;;5.90;99.90;;;;;;5114226;27;36519;-72
2022/01/05 05:05:49;;;;;;;19.67;3.60;;;5.90;99.90;;;;;;5114098;27;38655;-72
2022/01/05 05:08:15;;;;;;;20.73;2.93;;;5.90;99.90;;;;;;5091437;28;38992;-72
2022/01/05 05:10:41;;;;;;;13.83;2.40;;;5.90;99.90;;;;;;5098885;27;37074;-73
2022/01/05 05:13:11;;;;;;;18.33;3.03;;;5.90;99.90;;;;;;5088504;27;39866;-72
2022/01/05 05:15:39;;;;;;;13.23;3.40;;;5.90;99.90;;;;;;5084462;27;39907;-72
2022/01/05 05:18:07;;;;;;;16.90;3.93;;;5.90;99.90;;;;;;5090435;28;38788;-74
2022/01/05 05:20:33;;;;;;;15.93;2.77;;;5.90;99.90;;;;;;5094273;27;38026;-73
2022/01/05 05:23:00;;;;;;;18.63;3.90;;;6.00;99.90;;;;;;5083472;27;40227;-72
2022/01/05 05:25:26;;;;;;;18.10;3.13;;;5.90;99.90;;;;;;5087021;27;39085;-73
2022/01/05 05:27:52;;;;;;;20.03;3.13;;;6.00;99.90;;;;;;5088840;27;38410;-73
2022/01/05 05:30:19;;;;;;;23.17;3.37;;;5.90;99.90;;;;;;5104021;27;38064;-73
2022/01/05 05:32:45;;;;;;;18.23;3.70;;;5.90;99.90;;;;;;5084447;27;38559;-73
2022/01/05 05:35:11;;;;;;;19.33;3.10;;;5.90;99.90;;;;;;5105570;27;39441;-74
2022/01/05 05:37:37;;;;;;;16.77;3.03;;;6.00;99.90;;;;;;5084434;27;38480;-74
2022/01/05 05:40:05;;;;;;;16.10;3.40;;;6.00;99.90;;;;;;5104341;27;37282;-72
2022/01/05 05:42:31;;;;;;;18.47;3.63;;;6.00;99.90;;;;;;5110679;27;48040;-72
2022/01/05 05:44:57;;;;;;;18.00;3.47;;;6.00;99.90;;;;;;5091014;28;39614;-73
2022/01/05 05:47:23;;;;;;;18.73;3.67;;;6.00;99.90;;;;;;5108572;27;38111;-72
2022/01/05 05:49:49;;;;;;;17.53;3.10;;;6.00;99.90;;;;;;5087096;27;38963;-72
2022/01/05 05:52:16;;;;;;;17.03;3.03;;;6.00;99.90;;;;;;5100464;27;39809;-72
2022/01/05 05:54:42;;;;;;;10.87;2.40;;;6.00;99.90;;;;;;5089971;28;40103;-72
2022/01/05 05:57:08;;;;;;;19.80;3.03;;;6.00;99.90;;;;;;5084060;27;38782;-73
2022/01/05 05:59:35;;;;;;;21.77;3.00;;;6.00;99.90;;;;;;5103417;27;37592;-72
2022/01/05 06:02:01;;;;;;;18.83;4.03;;;6.00;99.90;;;;;;5106060;27;38284;-72
2022/01/05 06:04:29;;;;;;;10.10;2.33;;;6.00;99.90;;;;;;5091243;27;47168;-72
2022/01/05 06:06:55;;;;;;;16.00;2.73;;;6.10;99.90;;;;;;5070484;28;39237;-73
2022/01/05 06:09:21;;;;;;;19.43;2.80;;;6.00;99.90;;;;;;5064137;28;35049;-73
2022/01/05 06:11:47;;;;;;;20.77;2.70;;;6.00;99.90;;;;;;5079714;28;37944;-74
2022/01/05 06:14:13;;;;;;;24.60;3.00;;;6.00;99.90;;;;;;5093937;28;38572;-72
2022/01/05 06:16:39;;;;;;;19.03;2.83;;;6.00;99.90;;;;;;5065354;28;38944;-73
2022/01/05 06:19:05;;;;;;;17.70;2.63;;;6.10;99.90;;;;;;5061020;28;36573;-73
2022/01/05 06:21:31;;;;;;;21.07;3.47;;;6.10;99.90;;;;;;5062399;28;39820;-73
2022/01/05 06:23:57;;;;;;;23.20;2.90;;;6.10;99.90;;;;;;5078391;28;38307;-74
2022/01/05 06:26:24;;;;;;;16.77;2.90;;;6.10;99.90;;;;;;5080068;28;38841;-73
2022/01/05 06:28:50;;;;;;;14.83;2.67;;;6.10;99.90;;;;;;5061737;28;37615;-74
2022/01/05 06:31:16;;;;;;;15.73;3.47;;;6.20;99.90;;;;;;5076663;28;40072;-74
2022/01/05 06:33:43;;;;;;;19.27;2.83;;;6.10;99.90;;;;;;5077883;28;38340;-73
2022/01/05 06:36:09;;;;;;;13.27;2.77;;;6.10;99.90;;;;;;5076375;28;38053;-73
2022/01/05 06:38:35;;;;;;;26.60;3.77;;;6.10;99.90;;;;;;5081657;28;37874;-73
2022/01/05 06:41:01;;;;;;;18.23;4.33;;;6.20;99.90;;;;;;5075314;28;38615;-73
2022/01/05 06:43:28;;;;;;;21.43;3.13;;;6.20;99.90;;;;;;5085246;28;48392;-73
2022/01/05 06:45:54;;;;;;;18.90;3.03;;;6.20;99.90;;;;;;5078559;28;38743;-72
2022/01/05 06:48:20;;;;;;;21.50;3.37;;;6.20;99.90;;;;;;5074911;28;37968;-72
2022/01/05 06:50:46;;;;;;;22.33;2.87;;;6.30;99.90;;;;;;5064080;28;40039;-72
2022/01/05 06:53:14;;;;;;;23.53;3.47;;;6.30;99.90;;;;;;5060335;28;39803;-73
2022/01/05 06:55:40;;;;;;;15.43;3.23;;;6.30;99.90;;;;;;5060525;28;40100;-74
2022/01/05 06:58:07;;;;;;;21.33;2.93;;;6.30;99.90;;;;;;5059167;28;37439;-73
2022/01/05 07:00:33;;;;;;;17.50;2.77;;;6.40;99.90;;;;;;5073775;28;40990;-72
2022/01/05 07:03:01;;;;;;;18.50;3.00;;;6.40;99.90;;;;;;5060678;28;38892;-73
2022/01/05 07:05:27;;;;;;;15.23;2.87;;;6.30;99.90;;;;;;5070429;28;39006;-73
2022/01/05 07:07:53;;;;;;;17.53;3.13;;;6.30;99.90;;;;;;5080553;27;37830;-74
2022/01/05 07:10:19;;;;;;;23.03;3.40;;;6.20;99.90;;;;;;5081625;27;39510;-73
2022/01/05 07:12:46;;;;;;;26.97;3.80;;;6.20;99.90;;;;;;5085078;28;38957;-73
2022/01/05 07:15:12;;;;;;;22.43;3.53;;;6.20;99.90;;;;;;5078421;27;39516;-72
2022/01/05 07:17:38;;;;;;;22.33;3.50;;;6.10;99.90;;;;;;5083023;27;36603;-73
2022/01/05 07:20:05;;;;;;;22.30;3.90;;;6.20;99.90;;;;;;5078235;27;40475;-73
2022/01/05 07:22:31;;;;;;;13.00;3.07;;;6.20;99.90;;;;;;5098754;27;38959;-73
2022/01/05 07:24:58;;;;;;;24.73;3.77;;;6.20;99.90;;;;;;5080753;27;38690;-73
2022/01/05 07:27:24;;;;;;;20.63;3.30;;;6.10;99.90;;;;;;5091677;27;38078;-77
2022/01/05 07:29:50;;;;;;;27.37;3.87;;;6.10;99.90;;;;;;5101779;27;40850;-73
2022/01/05 07:32:16;;;;;;;23.53;3.87;;;6.10;99.90;;;;;;5101435;27;38369;-73
2022/01/05 07:34:42;;;;;;;18.27;3.60;;;6.20;99.90;;;;;;5088577;27;38283;-73
2022/01/05 07:37:09;;;;;;;20.17;3.83;;;6.30;99.90;;;;;;5100081;27;37128;-73
2022/01/05 07:39:36;;;;;;;18.37;3.80;;;6.30;99.90;;;;;;5094314;27;40773;-73
2022/01/05 07:42:03;;;;;;;14.07;2.63;;;6.30;99.90;;;;;;5094248;27;39841;-73
2022/01/05 07:44:29;;;;;;;19.27;3.70;;;6.30;99.90;;;;;;5089733;27;37596;-73
2022/01/05 07:46:55;;;;;;;20.57;3.77;;;6.30;99.90;;;;;;5104511;27;37138;-73
2022/01/05 07:49:21;;;;;;;34.37;3.37;;;6.30;99.90;;;;;;5099720;27;38993;-71
2022/01/05 07:51:48;;;;;;;26.03;4.07;;;6.40;99.90;;;;;;5083411;27;40153;-73
2022/01/05 07:54:14;;;;;;;22.97;3.83;;;6.40;99.90;;;;;;5082343;27;37869;-72
2022/01/05 07:56:40;;;;;;;19.57;4.00;;;6.40;99.90;;;;;;5097661;27;36937;-72
2022/01/05 07:59:06;;;;;;;24.43;4.17;;;6.40;99.90;;;;;;5094334;27;40097;-74
2022/01/05 08:01:32;;;;;;;23.17;3.40;;;6.50;99.90;;;;;;5094254;27;38168;-73
2022/01/05 08:03:59;;;;;;;21.23;3.13;;;6.50;99.90;;;;;;5096918;27;38342;-73
2022/01/05 08:06:25;;;;;;;18.97;3.00;;;6.50;99.90;;;;;;5068379;28;37618;-73
2022/01/05 08:08:51;;;;;;;20.30;3.97;;;6.50;99.90;;;;;;5066421;28;40765;-72
2022/01/05 08:11:17;;;;;;;23.47;3.27;;;6.50;99.90;;;;;;5080647;27;37096;-72
2022/01/05 08:13:44;;;;;;;21.73;3.57;;;6.50;99.90;;;;;;5097822;27;38687;-72
2022/01/05 08:16:10;;;;;;;19.90;3.50;;;6.50;99.90;;;;;;5063694;28;38695;-73
2022/01/05 08:18:37;;;;;;;22.80;3.67;;;6.60;99.90;;;;;;5076242;28;39475;-73
2022/01/05 08:21:03;;;;;;;16.57;3.40;;;6.60;99.90;;;;;;5081705;28;38093;-73
2022/01/05 08:23:29;;;;;;;17.07;3.93;;;6.60;99.90;;;;;;5080105;27;37952;-72
2022/01/05 08:25:55;;;;;;;22.37;3.17;;;6.60;99.90;;;;;;5062065;28;37528;-72
2022/01/05 08:28:21;;;;;;;26.10;3.93;;;6.60;99.90;;;;;;5081745;28;38866;-72
2022/01/05 08:30:48;;;;;;;29.47;4.03;;;6.60;99.90;;;;;;5080931;27;38817;-72
2022/01/05 08:33:16;;;;;;;21.00;3.23;;;6.60;99.90;;;;;;5063735;28;37947;-72
2022/01/05 08:35:42;;;;;;;17.10;3.10;;;6.70;99.90;;;;;;5063135;28;36869;-73
2022/01/05 08:38:09;;;;;;;27.07;3.20;;;6.70;99.90;;;;;;5086800;27;38017;-73
2022/01/05 08:40:37;;;;;;;16.20;3.13;;;6.70;99.90;;;;;;5094871;27;37222;-72
2022/01/05 08:43:05;;;;;;;25.43;4.77;;;6.70;99.90;;;;;;5060358;28;37252;-73
2022/01/05 08:45:31;;;;;;;17.47;3.33;;;6.70;99.90;;;;;;5079285;28;37018;-72
2022/01/05 08:47:59;;;;;;;24.97;3.83;;;6.70;99.90;;;;;;5085069;28;39022;-74
2022/01/05 08:50:28;;;;;;;19.43;3.43;;;6.70;99.90;;;;;;5063268;27;37763;-73
2022/01/05 08:53:00;;;;;;;21.10;4.37;;;6.70;99.90;;;;;;5077651;28;38143;-72
2022/01/05 08:55:33;;;;;;;26.97;4.47;;;6.80;99.90;;;;;;5059539;27;36140;-72
2022/01/05 08:58:00;;;;;;;17.60;3.53;;;6.80;99.90;;;;;;5062762;28;40760;-72
2022/01/05 09:00:26;;;;;;;31.20;4.93;;;6.80;99.90;;;;;;5092949;27;37033;-72
2022/01/05 09:02:53;;;;;;;20.17;3.50;;;6.90;99.90;;;;;;5085098;27;37374;-72
2022/01/05 09:05:19;;;;;;;26.17;4.13;;;6.90;99.90;;;;;;5094283;27;37041;-73
2022/01/05 09:07:45;;;;;;;16.17;3.07;;;6.90;99.90;;;;;;5086249;28;41105;-72
2022/01/05 09:10:12;;;;;;;18.63;3.13;;;6.90;99.90;;;;;;5088311;27;38062;-73
2022/01/05 09:12:38;;;;;;;22.10;3.43;;;6.90;99.90;;;;;;5090672;27;37793;-72
2022/01/05 09:15:05;;;;;;;22.30;3.87;;;6.90;99.90;;;;;;5109853;27;37910;-73
2022/01/05 09:17:31;;;;;;;19.67;3.20;;;6.90;99.90;;;;;;5087051;28;46978;-72
2022/01/05 09:19:57;;;;;;;17.40;3.80;;;6.90;99.90;;;;;;5106647;28;39058;-74
2022/01/05 09:22:24;;;;;;;24.00;2.90;;;6.90;99.90;;;;;;5096407;27;37396;-73
2022/01/05 09:24:51;;;;;;;25.37;3.67;;;6.90;99.90;;;;;;5090870;27;37866;-72
2022/01/05 09:27:18;;;;;;;25.93;3.77;;;6.90;99.90;;;;;;5099689;27;39611;-73
2022/01/05 09:29:44;;;;;;;21.17;3.00;;;6.90;99.90;;;;;;5114826;27;38308;-72
2022/01/05 09:32:10;;;;;;;27.13;4.47;;;7.00;99.90;;;;;;5083917;27;39404;-72
2022/01/05 09:34:41;;;;;;;21.67;3.70;;;7.00;99.90;;;;;;5095244;28;37217;-72
2022/01/05 09:37:23;;;;;;;27.37;3.60;;;7.10;99.90;;;;;;5094370;27;39610;-72
2022/01/05 09:42:35;;;;;;;19.07;2.90;;;7.20;99.90;;;;;;5089869;27;49651;-75
2022/01/05 09:45:27;;;;;;;23.17;4.47;;;7.30;99.90;;;;;;5101112;27;37743;-72
2022/01/05 09:48:24;;;;;;;19.17;3.17;;;7.30;99.90;;;;;;5099311;27;48669;-73
2022/01/05 09:50:58;;;;;;;15.47;3.57;;;7.30;99.90;;;;;;5099560;27;48654;-72
2022/01/05 09:53:25;;;;;;;21.33;3.20;;;7.30;99.90;;;;;;5106463;27;37338;-72
2022/01/05 09:55:52;;;;;;;23.77;3.87;;;7.30;99.90;;;;;;5089235;28;38944;-72
2022/01/05 09:58:20;;;;;;;27.37;3.93;;;7.30;99.90;;;;;;5086491;27;39329;-72
2022/01/05 10:00:47;;;;;;;29.20;3.70;;;7.30;99.90;;;;;;5103592;27;38567;-72
2022/01/05 10:03:14;;;;;;;19.87;4.50;;;7.30;99.90;;;;;;5083301;27;39121;-72
2022/01/05 10:05:42;;;;;;;24.87;3.83;;;7.20;99.90;;;;;;5102562;27;37029;-72
2022/01/05 10:08:08;;;;;;;24.17;4.53;;;7.20;99.90;;;;;;5104215;27;38521;-73
2022/01/05 10:10:36;;;;;;;18.07;2.97;;;7.20;99.90;;;;;;5097792;27;20251;-73
2022/01/05 10:13:02;;;;;;;23.80;3.20;;;7.20;99.90;;;;;;5100704;27;37711;-70
2022/01/05 10:15:29;;;;;;;24.67;4.07;;;7.20;99.90;;;;;;5071879;27;47224;-70
2022/01/05 10:18:15;;;;;;;20.97;3.60;;;7.20;99.90;;;;;;5098526;27;39735;-73
2022/01/05 10:21:14;;;;;;;18.27;3.90;;;7.20;99.90;;;;;;5100467;27;48582;-73
2022/01/05 10:23:42;;;;;;;21.50;3.47;;;7.20;99.90;;;;;;5074023;27;48366;-72
2022/01/05 10:26:26;;;;;;;34.80;4.63;;;7.20;99.90;;;;;;5079422;27;39234;-72
2022/01/05 10:28:56;;;;;;;24.13;3.77;;;7.30;99.90;;;;;;5102164;27;38574;-72
2022/01/05 10:31:27;;;;;;;20.47;3.73;;;7.40;99.90;;;;;;5096877;27;38352;-72
2022/01/05 10:33:53;;;;;;;16.70;3.87;;;7.40;99.90;;;;;;5105619;27;37940;-72
2022/01/05 10:36:19;;;;;;;18.93;3.63;;;7.40;99.90;;;;;;5083944;27;37959;-72
2022/01/05 10:38:54;;;;;;;22.50;2.93;;;7.40;99.90;;;;;;5091889;28;39621;-73
2022/01/05 10:41:22;;;;;;;33.17;4.27;;;7.40;99.90;;;;;;5095014;27;41074;-73
2022/01/05 10:44:13;;;;;;;25.63;3.67;;;7.40;99.90;;;;;;5088195;27;37970;-72
2022/01/05 10:46:42;;;;;;;29.93;3.83;;;7.40;99.90;;;;;;5099022;27;49226;-74
2022/01/05 10:49:09;;;;;;;20.10;3.97;;;7.30;99.90;;;;;;5104687;27;39001;-74
2022/01/05 10:51:35;;;;;;;23.83;4.17;;;7.30;99.90;;;;;;5086716;27;38851;-72
2022/01/05 10:54:19;;;;;;;22.93;3.67;;;7.20;99.90;;;;;;5101936;27;38912;-73
2022/01/05 10:56:45;;;;;;;24.80;4.33;;;7.10;99.90;;;;;;5105344;27;37956;-72
2022/01/05 10:59:15;;;;;;;29.17;5.30;;;7.00;99.90;;;;;;5096961;27;38747;-72
2022/01/05 11:01:42;;;;;;;22.20;3.97;;;7.00;99.90;;;;;;5105605;27;38629;-73
2022/01/05 11:04:34;;;;;;;29.43;5.47;;;7.00;99.90;;;;;;5102999;27;39849;-72
2022/01/05 11:07:03;;;;;;;24.63;4.10;;;7.00;99.90;;;;;;5084837;27;37346;-72
2022/01/05 11:09:31;;;;;;;20.87;4.07;;;7.00;99.90;;;;;;5099440;27;48646;-73
2022/01/05 11:11:58;;;;;;;22.33;3.93;;;7.00;99.90;;;;;;5105489;27;40070;-73
2022/01/05 11:14:34;;;;;;;22.67;3.77;;;7.00;99.90;;;;;;5087484;28;39068;-72
2022/01/05 11:17:05;;;;;;;24.80;4.33;;;7.10;99.90;;;;;;5105342;27;38006;-72
2022/01/05 11:19:33;;;;;;;22.43;3.23;;;7.10;99.90;;;;;;5089197;28;47210;-74
2022/01/05 11:22:14;;;;;;;22.57;3.87;;;7.10;99.90;;;;;;5098895;27;38671;-71
2022/01/05 11:24:52;;;;;;;21.37;3.70;;;7.10;99.90;;;;;;5083466;27;45763;-73
2022/01/05 11:27:25;;;;;;;28.13;4.07;;;7.10;99.90;;;;;;5079730;27;38494;-72
2022/01/05 11:29:52;;;;;;;29.43;6.23;;;7.10;99.90;;;;;;5106554;27;39280;-72
2022/01/05 11:32:22;;;;;;;32.60;4.93;;;7.20;99.90;;;;;;5097152;27;37945;-73
2022/01/05 11:34:50;;;;;;;31.07;4.53;;;7.30;99.90;;;;;;5083170;27;39356;-72
2022/01/05 11:37:16;;;;;;;31.47;4.47;;;7.20;99.90;;;;;;5081350;28;38246;-72
2022/01/05 11:39:48;;;;;;;26.53;4.60;;;7.20;99.90;;;;;;5079741;27;39292;-73
2022/01/05 11:42:25;;;;;;;24.20;3.50;;;7.20;99.90;;;;;;5096663;27;39112;-73
2022/01/05 11:44:54;;;;;;;28.30;3.43;;;7.30;99.90;;;;;;5109038;27;38807;-72
2022/01/05 11:47:23;;;;;;;26.97;4.17;;;7.30;99.90;;;;;;5081326;28;37576;-73
2022/01/05 11:49:51;;;;;;;27.80;3.80;;;7.40;99.90;;;;;;5082142;27;38270;-72
2022/01/05 11:52:17;;;;;;;25.80;4.07;;;7.40;99.90;;;;;;5101719;27;39347;-73
2022/01/05 11:55:03;;;;;;;22.20;3.63;;;7.40;99.90;;;;;;5074010;27;38649;-74
2022/01/05 11:57:29;;;;;;;26.67;3.70;;;7.40;99.90;;;;;;5089370;28;46891;-72
2022/01/05 12:00:18;;;;;;;25.43;3.90;;;7.30;99.90;;;;;;5087621;27;40644;-73
2022/01/05 12:02:44;;;;;;;21.87;3.87;;;7.30;99.90;;;;;;5076266;28;47156;-73
2022/01/05 12:05:11;;;;;;;26.33;4.23;;;7.30;99.90;;;;;;5099117;27;38448;-73
2022/01/05 12:07:47;;;;;;;20.47;4.50;;;7.40;99.90;;;;;;5104804;27;37712;-72
2022/01/05 12:10:23;;;;;;;26.80;3.93;;;7.40;99.90;;;;;;5092804;27;39898;-73
2022/01/05 12:12:55;;;;;;;24.53;4.07;;;7.40;99.90;;;;;;5093116;28;39131;-73
2022/01/05 12:15:41;;;;;;;25.48;4.88;;;7.40;99.90;;;;;;5099105;27;38630;-73
2022/01/05 12:18:08;;;;;;;22.60;3.57;;;7.30;99.90;;;;;;5084793;27;36452;-73
2022/01/05 12:20:37;;;;;;;25.57;4.43;;;7.30;99.90;;;;;;5105614;27;38645;-72
2022/01/05 12:23:24;;;;;;;20.57;3.93;;;7.30;99.90;;;;;;5094268;27;39480;-73
2022/01/05 12:26:05;;;;;;;20.67;3.57;;;7.30;99.90;;;;;;5079691;27;38509;-75
2022/01/05 12:28:50;;;;;;;22.23;4.30;;;7.30;99.90;;;;;;5094841;27;48454;-73
2022/01/05 12:31:17;;;;;;;27.90;4.37;;;7.30;99.90;;;;;;5089871;27;41041;-73
2022/01/05 12:33:49;;;;;;;28.20;4.40;;;7.20;99.90;;;;;;5091444;27;39160;-75
2022/01/05 12:36:50;;;;;;;21.85;3.40;;;7.20;99.90;;;;;;5100093;27;38627;-73
2022/01/05 12:39:16;;;;;;;31.37;4.40;;;7.10;99.90;;;;;;5050710;28;37139;-74
2022/01/05 12:41:44;;;;;;;29.93;4.80;;;7.10;99.90;;;;;;5093342;27;38608;-74
2022/01/05 12:44:15;;;;;;;18.27;3.57;;;7.10;99.90;;;;;;5081158;28;39431;-74
2022/01/05 12:46:44;;;;;;;20.37;4.33;;;7.10;99.90;;;;;;5097827;27;39645;-74
2022/01/05 12:49:26;;;;;;;20.23;4.27;;;7.00;99.90;;;;;;5083391;27;38066;-73
2022/01/05 12:51:58;;;;;;;24.33;4.47;;;7.00;99.90;;;;;;5084487;28;40469;-74
2022/01/05 12:54:53;;;;;;;26.80;3.80;;;7.10;99.90;;;;;;5091582;27;37513;-74
2022/01/05 12:57:22;;;;;;;20.97;4.13;;;7.10;99.90;;;;;;5097068;27;39984;-73